createdAt,value
2019-02-15T00:00:18.290Z,17.52
2019-02-15T00:02:46.988Z,15.98
2019-02-15T00:05:15.799Z,17.98
2019-02-15T00:07:44.524Z,18.70
2019-02-15T00:10:13.258Z,16.35
2019-02-15T00:12:41.915Z,15.03
2019-02-15T00:15:10.709Z,14.33
2019-02-15T00:18:10.451Z,16.42
2019-02-15T00:20:45.482Z,16.05
2019-02-15T00:23:14.235Z,15.90
2019-02-15T00:25:43.005Z,14.15
2019-02-15T00:28:11.825Z,14.70
2019-02-15T00:30:40.635Z,12.70
2019-02-15T00:33:09.420Z,18.23
2019-02-15T00:35:38.145Z,15.85
2019-02-15T00:38:06.856Z,19.30
2019-02-15T00:40:35.609Z,14.28
2019-02-15T00:43:04.404Z,18.90
2019-02-15T00:45:37.311Z,17.80
2019-02-15T00:48:13.109Z,15.68
2019-02-15T00:50:50.749Z,13.22
2019-02-15T00:53:38.548Z,15.75
2019-02-15T00:56:14.687Z,15.20
2019-02-15T00:59:05.590Z,15.03
2019-02-15T01:01:48.342Z,18.85
2019-02-15T01:04:27.077Z,15.90
2019-02-15T01:07:13.682Z,15.23
2019-02-15T01:09:47.321Z,14.23
2019-02-15T01:12:22.161Z,17.52
2019-02-15T01:14:50.884Z,15.75
2019-02-15T01:17:19.557Z,17.60
2019-02-15T01:19:48.375Z,17.42
2019-02-15T01:22:17.072Z,14.10
2019-02-15T01:24:45.870Z,13.28
2019-02-15T01:27:29.495Z,16.45
2019-02-15T01:30:15.973Z,16.75
2019-02-15T01:32:56.396Z,14.05
2019-02-15T01:35:50.207Z,13.68
2019-02-15T01:38:36.837Z,13.68
2019-02-15T01:41:21.398Z,13.55
2019-02-15T01:44:18.350Z,17.10
2019-02-15T01:46:54.713Z,12.28
2019-02-15T01:49:23.409Z,13.60
2019-02-15T01:51:52.232Z,15.15
2019-02-15T01:54:20.999Z,25.68
2019-02-15T01:56:49.752Z,13.13
2019-02-15T01:59:18.486Z,16.32
2019-02-15T02:01:47.282Z,16.48
2019-02-15T02:04:15.991Z,13.95
2019-02-15T02:06:44.829Z,16.40
2019-02-15T02:09:13.582Z,14.87
2019-02-15T02:11:42.352Z,12.95
2019-02-15T02:14:11.101Z,11.22
2019-02-15T02:16:39.817Z,16.37
2019-02-15T02:19:08.552Z,16.05
2019-02-15T02:21:37.259Z,17.37
2019-02-15T02:24:06.147Z,11.18
2019-02-15T02:26:34.886Z,12.75
2019-02-15T02:29:03.650Z,20.45
2019-02-15T02:31:32.568Z,14.33
2019-02-15T02:34:01.304Z,11.08
2019-02-15T02:36:53.147Z,12.82
2019-02-15T02:39:22.096Z,11.38
2019-02-15T02:41:50.905Z,12.95
2019-02-15T02:44:19.820Z,11.85
2019-02-15T02:46:48.589Z,13.60
2019-02-15T02:49:17.456Z,15.70
2019-02-15T02:51:46.166Z,15.38
2019-02-15T02:54:14.943Z,11.85
2019-02-15T02:56:43.646Z,12.43
2019-02-15T02:59:12.340Z,11.28
2019-02-15T03:01:41.150Z,10.00
2019-02-15T03:04:09.898Z,12.75
2019-02-15T03:06:38.628Z,10.60
2019-02-15T03:09:08.782Z,17.07
2019-02-15T03:11:37.495Z,14.00
2019-02-15T03:14:11.455Z,13.65
2019-02-15T03:16:36.666Z,10.45
2019-02-15T03:19:05.450Z,12.70
2019-02-15T03:21:34.297Z,11.65
2019-02-15T03:24:03.023Z,13.90
2019-02-15T03:26:31.764Z,14.35
2019-02-15T03:29:00.565Z,12.13
2019-02-15T03:31:29.346Z,14.35
2019-02-15T03:33:58.089Z,15.83
2019-02-15T03:36:38.768Z,10.72
2019-02-15T03:39:13.441Z,18.25
2019-02-15T03:41:42.347Z,13.72
2019-02-15T03:44:21.474Z,15.35
2019-02-15T03:46:41.636Z,11.45
2019-02-15T03:49:10.358Z,17.37
2019-02-15T03:51:39.187Z,11.68
2019-02-15T03:54:10.768Z,12.37
2019-02-15T03:56:39.557Z,14.60
2019-02-15T03:59:08.343Z,12.20
2019-02-15T04:01:37.072Z,12.15
2019-02-15T04:04:05.821Z,14.75
2019-02-15T04:06:34.510Z,14.43
2019-02-15T04:09:04.372Z,16.52
2019-02-15T04:11:33.076Z,12.73
2019-02-15T04:14:01.787Z,13.48
2019-02-15T04:16:30.611Z,13.48
2019-02-15T04:18:59.332Z,11.30
2019-02-15T04:21:28.143Z,12.15
2019-02-15T04:23:57.213Z,12.60
2019-02-15T04:26:25.935Z,13.68
2019-02-15T04:28:54.658Z,10.80
2019-02-15T04:31:23.340Z,11.78
2019-02-15T04:33:52.033Z,17.98
2019-02-15T04:36:20.854Z,14.60
2019-02-15T04:38:49.526Z,10.73
2019-02-15T04:41:18.269Z,12.57
2019-02-15T04:43:46.945Z,10.88
2019-02-15T04:46:15.759Z,14.90
2019-02-15T04:48:44.521Z,11.18
2019-02-15T04:51:13.278Z,13.05
2019-02-15T04:53:42.000Z,11.48
2019-02-15T04:56:10.750Z,11.30
2019-02-15T04:58:39.535Z,13.43
2019-02-15T05:01:08.272Z,14.98
2019-02-15T05:03:36.997Z,10.53
2019-02-15T05:06:05.706Z,11.03
2019-02-15T05:08:34.400Z,10.95
2019-02-15T05:11:03.114Z,9.90
2019-02-15T05:13:31.863Z,16.15
2019-02-15T05:16:00.673Z,11.33
2019-02-15T05:18:29.383Z,9.33
2019-02-15T05:20:58.204Z,14.40
2019-02-15T05:23:26.919Z,16.23
2019-02-15T05:25:55.612Z,12.58
2019-02-15T05:28:24.347Z,10.80
2019-02-15T05:30:53.074Z,14.30
2019-02-15T05:33:21.802Z,9.58
2019-02-15T05:35:50.583Z,14.90
2019-02-15T05:38:19.285Z,11.18
2019-02-15T05:40:48.011Z,15.85
2019-02-15T05:43:16.717Z,12.13
2019-02-15T05:45:45.431Z,13.55
2019-02-15T05:48:14.152Z,17.50
2019-02-15T05:50:42.861Z,14.60
2019-02-15T05:53:11.589Z,12.20
2019-02-15T05:55:40.297Z,12.90
2019-02-15T05:58:09.003Z,14.03
2019-02-15T06:00:37.782Z,13.32
2019-02-15T06:03:06.540Z,12.90
2019-02-15T06:05:35.299Z,11.10
2019-02-15T06:08:03.994Z,15.00
2019-02-15T06:10:32.759Z,15.23
2019-02-15T06:13:01.620Z,10.82
2019-02-15T06:15:30.351Z,12.70
2019-02-15T06:17:59.188Z,10.63
2019-02-15T06:20:27.888Z,10.95
2019-02-15T06:22:56.606Z,8.78
2019-02-15T06:25:25.364Z,10.65
2019-02-15T06:27:54.078Z,13.03
2019-02-15T06:30:22.915Z,12.07
2019-02-15T06:32:51.596Z,13.65
2019-02-15T06:35:20.362Z,16.62
2019-02-15T06:37:49.228Z,8.90
2019-02-15T06:40:17.894Z,12.00
2019-02-15T06:42:46.694Z,11.60
2019-02-15T06:45:24.030Z,13.38
2019-02-15T06:47:46.011Z,10.67
2019-02-15T06:50:14.896Z,11.78
2019-02-15T06:52:43.623Z,16.02
2019-02-15T06:55:12.322Z,11.70
2019-02-15T06:57:41.087Z,9.90
2019-02-15T07:00:47.497Z,13.90
2019-02-15T07:03:20.151Z,8.35
2019-02-15T07:05:48.895Z,12.90
2019-02-15T07:08:17.849Z,11.28
2019-02-15T07:10:46.573Z,11.35
2019-02-15T07:13:15.343Z,14.68
2019-02-15T07:15:44.353Z,12.28
2019-02-15T07:18:13.111Z,12.13
2019-02-15T07:20:41.885Z,9.48
2019-02-15T07:23:10.617Z,9.75
2019-02-15T07:25:39.312Z,14.40
2019-02-15T07:28:08.104Z,10.83
2019-02-15T07:30:36.839Z,9.75
2019-02-15T07:33:05.607Z,11.20
2019-02-15T07:35:34.501Z,10.65
2019-02-15T07:38:03.249Z,10.08
2019-02-15T07:40:31.992Z,16.12
2019-02-15T07:43:00.714Z,11.85
2019-02-15T07:45:29.507Z,10.28
2019-02-15T07:47:58.636Z,8.48
2019-02-15T07:50:27.634Z,8.48
2019-02-15T07:52:56.448Z,10.15
2019-02-15T07:55:25.340Z,8.95
2019-02-15T07:57:54.157Z,15.13
2019-02-15T08:00:23.008Z,9.90
2019-02-15T08:02:51.865Z,11.50
2019-02-15T08:05:20.993Z,8.03
2019-02-15T08:07:49.731Z,13.13
2019-02-15T08:10:18.431Z,9.75
2019-02-15T08:12:47.147Z,8.98
2019-02-15T08:15:15.946Z,7.87
2019-02-15T08:17:44.812Z,6.30
2019-02-15T08:20:13.650Z,7.30
2019-02-15T08:22:42.379Z,11.78
2019-02-15T08:25:11.153Z,12.35
2019-02-15T08:27:39.919Z,17.10
2019-02-15T08:30:09.689Z,14.95
2019-02-15T08:32:38.483Z,11.15
2019-02-15T08:35:07.926Z,9.88
2019-02-15T08:37:36.662Z,10.65
2019-02-15T08:40:06.167Z,10.78
2019-02-15T08:42:34.993Z,13.93
2019-02-15T08:45:03.969Z,12.07
2019-02-15T08:47:32.898Z,8.75
2019-02-15T08:50:01.743Z,13.85
2019-02-15T08:52:30.498Z,9.08
2019-02-15T08:54:59.334Z,10.15
2019-02-15T08:57:28.166Z,13.05
2019-02-15T08:59:57.056Z,11.83
2019-02-15T09:02:26.004Z,6.45
2019-02-15T09:04:54.798Z,8.18
2019-02-15T09:07:23.763Z,7.00
2019-02-15T09:09:52.480Z,14.10
2019-02-15T09:12:21.237Z,10.65
2019-02-15T09:14:50.053Z,12.73
2019-02-15T09:17:18.794Z,7.90
2019-02-15T09:19:47.500Z,8.60
2019-02-15T09:22:16.205Z,10.60
2019-02-15T09:24:45.075Z,6.80
2019-02-15T09:27:33.131Z,6.83
2019-02-15T09:30:01.869Z,6.50
2019-02-15T09:32:30.811Z,8.75
2019-02-15T09:34:59.657Z,7.70
2019-02-15T09:37:28.469Z,7.50
2019-02-15T09:39:57.263Z,13.10
2019-02-15T09:42:25.996Z,6.78
2019-02-15T09:44:54.878Z,8.73
2019-02-15T09:47:23.773Z,8.55
2019-02-15T09:49:52.699Z,15.72
2019-02-15T09:52:21.422Z,8.95
2019-02-15T09:54:50.179Z,9.50
2019-02-15T09:57:18.906Z,5.05
2019-02-15T09:59:47.745Z,8.40
2019-02-15T10:02:16.463Z,9.38
2019-02-15T10:04:48.301Z,5.87
2019-02-15T10:07:17.088Z,5.97
2019-02-15T10:09:45.821Z,6.30
2019-02-15T10:12:14.713Z,10.18
2019-02-15T10:14:43.519Z,6.08
2019-02-15T10:17:12.450Z,7.17
2019-02-15T10:19:41.288Z,8.58
2019-02-15T10:22:11.479Z,6.05
2019-02-15T10:24:40.480Z,11.83
2019-02-15T10:27:09.263Z,5.85
2019-02-15T10:29:38.134Z,5.72
2019-02-15T10:32:06.993Z,5.67
2019-02-15T10:34:35.719Z,6.28
2019-02-15T10:37:04.560Z,5.60
2019-02-15T10:39:33.409Z,5.95
2019-02-15T10:42:04.954Z,14.90
2019-02-15T10:44:33.741Z,7.08
2019-02-15T10:47:02.457Z,5.67
2019-02-15T10:49:31.216Z,4.83
2019-02-15T10:52:00.136Z,4.92
2019-02-15T10:54:29.070Z,7.30
2019-02-15T10:56:57.953Z,11.57
2019-02-15T10:59:27.730Z,3.62
2019-02-15T11:01:56.572Z,3.12
2019-02-15T11:04:25.535Z,3.25
2019-02-15T11:06:54.426Z,5.55
2019-02-15T11:09:23.270Z,3.20
2019-02-15T11:11:52.004Z,2.92
2019-02-15T11:14:20.793Z,6.05
2019-02-15T11:16:49.788Z,5.22
2019-02-15T11:19:18.564Z,5.67
2019-02-15T11:21:47.466Z,3.40
2019-02-15T11:24:16.232Z,4.53
2019-02-15T11:26:44.977Z,3.98
2019-02-15T11:29:13.882Z,4.47
2019-02-15T11:31:42.690Z,2.55
2019-02-15T11:34:11.445Z,5.42
2019-02-15T11:36:40.273Z,3.35
2019-02-15T11:39:10.953Z,2.55
2019-02-15T11:41:39.889Z,4.10
2019-02-15T11:44:08.750Z,4.20
2019-02-15T11:47:15.307Z,2.22
2019-02-15T11:49:44.025Z,5.42
2019-02-15T11:52:12.810Z,6.28
2019-02-15T11:54:41.603Z,3.72
2019-02-15T11:57:11.630Z,3.00
2019-02-15T11:59:40.337Z,2.67
2019-02-15T12:02:09.060Z,3.60
2019-02-15T12:04:38.000Z,3.30
2019-02-15T12:07:09.772Z,2.90
2019-02-15T12:09:38.656Z,3.08
2019-02-15T12:12:11.937Z,4.90
2019-02-15T12:14:40.531Z,3.22
2019-02-15T12:17:09.434Z,7.10
2019-02-15T12:19:38.243Z,2.00
2019-02-15T12:22:07.029Z,3.65
2019-02-15T12:24:35.753Z,1.77
2019-02-15T12:27:04.675Z,3.33
2019-02-15T12:29:33.527Z,3.75
2019-02-15T12:32:02.238Z,2.17
2019-02-15T12:34:30.902Z,2.92
2019-02-15T12:36:59.626Z,4.33
2019-02-15T12:39:28.360Z,2.85
2019-02-15T12:41:57.184Z,3.25
2019-02-15T12:44:27.750Z,4.65
2019-02-15T12:46:56.351Z,2.77
2019-02-15T12:49:26.191Z,4.15
2019-02-15T12:51:55.289Z,4.25
2019-02-15T12:54:24.127Z,2.67
2019-02-15T12:56:53.043Z,1.87
2019-02-15T12:59:22.191Z,6.53
2019-02-15T13:01:51.053Z,7.70
2019-02-15T13:04:19.786Z,4.72
2019-02-15T13:06:48.562Z,4.58
2019-02-15T13:09:17.502Z,5.17
2019-02-15T13:11:46.437Z,2.47
2019-02-15T13:14:15.183Z,6.50
2019-02-15T13:16:43.898Z,2.15
2019-02-15T13:19:12.733Z,10.55
2019-02-15T13:21:41.750Z,3.92
2019-02-15T13:24:10.510Z,2.60
2019-02-15T13:26:39.383Z,2.40
2019-02-15T13:29:08.210Z,3.08
2019-02-15T13:31:36.934Z,2.80
2019-02-15T13:34:05.764Z,5.53
2019-02-15T13:36:34.483Z,2.15
2019-02-15T13:39:04.800Z,3.12
2019-02-15T13:41:33.678Z,2.87
2019-02-15T13:44:02.483Z,3.95
2019-02-15T13:46:33.226Z,4.25
2019-02-15T13:49:01.717Z,3.67
2019-02-15T13:51:30.462Z,3.75
2019-02-15T13:53:59.302Z,5.22
2019-02-15T13:56:28.131Z,2.83
2019-02-15T13:58:56.857Z,4.50
2019-02-15T14:01:25.584Z,2.67
2019-02-15T14:03:54.364Z,2.62
2019-02-15T14:06:23.226Z,3.70
2019-02-15T14:08:52.116Z,3.42
2019-02-15T14:11:20.980Z,6.85
2019-02-15T14:13:49.836Z,7.45
2019-02-15T14:16:18.686Z,6.35
2019-02-15T14:18:47.533Z,2.87
2019-02-15T14:21:16.373Z,3.67
2019-02-15T14:23:45.195Z,7.55
2019-02-15T14:26:13.948Z,2.85
2019-02-15T14:28:42.770Z,4.03
2019-02-15T14:31:11.565Z,2.30
2019-02-15T14:33:40.566Z,3.52
2019-02-15T14:36:09.459Z,3.42
2019-02-15T14:38:38.202Z,5.87
2019-02-15T14:41:07.039Z,4.97
2019-02-15T14:43:35.833Z,3.50
2019-02-15T14:46:04.666Z,3.08
2019-02-15T14:48:33.497Z,5.17
2019-02-15T14:51:08.024Z,2.87
2019-02-15T14:53:42.262Z,6.78
2019-02-15T14:56:11.052Z,2.70
2019-02-15T14:58:39.818Z,4.67
2019-02-15T15:07:13.628Z,2.77
2019-02-15T15:09:44.935Z,4.67
2019-02-15T15:12:14.859Z,2.35
2019-02-15T15:14:49.489Z,3.58
2019-02-15T15:17:18.203Z,4.08
2019-02-15T15:19:47.152Z,3.62
2019-02-15T15:22:21.959Z,3.02
2019-02-15T15:24:51.904Z,3.55
2019-02-15T15:27:20.763Z,4.60
2019-02-15T15:29:50.471Z,2.35
2019-02-15T15:32:19.478Z,2.80
2019-02-15T15:34:48.304Z,1.92
2019-02-15T15:37:17.043Z,2.72
2019-02-15T15:39:45.902Z,1.85
2019-02-15T15:42:14.695Z,2.45
2019-02-15T15:44:43.483Z,2.92
2019-02-15T15:47:12.357Z,2.42
2019-02-15T15:49:41.242Z,2.30
2019-02-15T15:52:09.964Z,2.77
2019-02-15T15:54:38.942Z,5.10
2019-02-15T15:57:07.791Z,2.35
2019-02-15T15:59:36.681Z,7.17
2019-02-15T16:02:05.575Z,5.25
2019-02-15T16:04:34.309Z,7.17
2019-02-15T16:07:03.108Z,3.65
2019-02-15T16:09:31.949Z,3.12
2019-02-15T16:12:00.754Z,3.22
2019-02-15T16:14:29.598Z,3.83
2019-02-15T16:16:58.349Z,4.42
2019-02-15T16:19:27.356Z,7.92
2019-02-15T16:21:56.109Z,5.85
2019-02-15T16:24:24.859Z,8.93
2019-02-15T16:26:53.711Z,9.68
2019-02-15T16:29:22.915Z,11.90
2019-02-15T16:31:52.078Z,7.85
2019-02-15T16:34:20.917Z,7.95
2019-02-15T16:36:49.739Z,5.17
2019-02-15T16:39:18.501Z,6.60
2019-02-15T16:41:47.408Z,4.72
2019-02-15T16:44:16.450Z,4.28
2019-02-15T16:46:45.232Z,7.55
2019-02-15T16:49:13.931Z,4.47
2019-02-15T16:51:43.029Z,8.93
2019-02-15T16:54:12.155Z,9.88
2019-02-15T16:56:42.545Z,7.85
2019-02-15T16:59:13.920Z,4.97
2019-02-15T17:01:46.007Z,7.50
2019-02-15T17:04:14.641Z,8.70
2019-02-15T17:06:43.557Z,7.30
2019-02-15T17:09:19.749Z,5.80
2019-02-15T17:11:48.596Z,6.90
2019-02-15T17:14:28.926Z,13.45
2019-02-15T17:16:57.729Z,9.70
2019-02-15T17:19:26.730Z,6.20
2019-02-15T17:21:55.559Z,10.10
2019-02-15T17:24:24.395Z,5.87
2019-02-15T17:26:53.153Z,9.53
2019-02-15T17:29:22.023Z,8.93
2019-02-15T17:31:50.940Z,7.60
2019-02-15T17:34:19.894Z,7.20
2019-02-15T17:36:48.640Z,6.47
2019-02-15T17:39:17.462Z,7.55
2019-02-15T17:41:46.352Z,6.00
2019-02-15T17:44:15.425Z,7.05
2019-02-15T17:46:44.281Z,11.83
2019-02-15T17:49:13.107Z,7.25
2019-02-15T17:51:41.945Z,7.28
2019-02-15T17:54:10.744Z,9.35
2019-02-15T17:56:39.613Z,12.58
2019-02-15T17:59:08.500Z,6.30
2019-02-15T18:01:37.340Z,10.55
2019-02-15T18:04:06.143Z,8.18
2019-02-15T18:06:34.993Z,10.13
2019-02-15T18:09:04.508Z,7.37
2019-02-15T18:11:33.290Z,15.00
2019-02-15T18:14:02.086Z,12.43
2019-02-15T18:16:30.890Z,8.33
2019-02-15T18:18:59.631Z,14.05
2019-02-15T18:21:28.373Z,11.73
2019-02-15T18:23:57.253Z,10.18
2019-02-15T18:26:26.245Z,15.23
2019-02-15T18:28:56.060Z,8.70
2019-02-15T18:31:24.784Z,10.45
2019-02-15T18:33:53.657Z,12.23
2019-02-15T18:36:30.024Z,13.60
2019-02-15T18:38:58.997Z,9.48
2019-02-15T18:41:27.791Z,7.62
2019-02-15T18:43:56.628Z,9.05
2019-02-15T18:46:25.518Z,7.10
2019-02-15T18:48:54.734Z,7.55
2019-02-15T18:51:23.647Z,8.93
2019-02-15T18:53:52.418Z,7.85
2019-02-15T18:56:21.363Z,6.80
2019-02-15T18:58:50.072Z,11.50
2019-02-15T19:01:18.937Z,8.78
2019-02-15T19:03:47.732Z,8.83
2019-02-15T19:06:16.526Z,8.95
2019-02-15T19:08:45.414Z,7.05
2019-02-15T19:11:14.441Z,8.28
2019-02-15T19:13:43.203Z,6.60
2019-02-15T19:16:12.687Z,10.75
2019-02-15T19:18:41.443Z,9.50
2019-02-15T19:21:12.536Z,11.85
2019-02-15T19:23:41.441Z,16.80
2019-02-15T19:26:33.869Z,8.63
2019-02-15T19:29:02.700Z,10.13
2019-02-15T19:31:31.626Z,7.33
2019-02-15T19:34:09.683Z,11.55
2019-02-15T19:37:00.581Z,9.70
2019-02-15T19:39:39.998Z,8.63
2019-02-15T19:42:19.630Z,11.85
2019-02-15T19:45:05.284Z,11.53
2019-02-15T19:47:55.371Z,9.05
2019-02-15T19:50:37.238Z,9.43
2019-02-15T19:53:06.100Z,10.55
2019-02-15T19:55:34.882Z,7.03
2019-02-15T19:58:03.662Z,7.78
2019-02-15T20:00:32.485Z,8.75
2019-02-15T20:03:01.280Z,9.83
2019-02-15T20:05:30.079Z,9.03
2019-02-15T20:07:59.041Z,7.70
2019-02-15T20:10:28.549Z,8.43
2019-02-15T20:12:57.362Z,9.95
2019-02-15T20:15:26.176Z,7.00
2019-02-15T20:17:55.050Z,11.45
2019-02-15T20:20:23.986Z,8.35
2019-02-15T20:22:52.808Z,7.97
2019-02-15T20:25:21.692Z,9.08
2019-02-15T20:27:50.646Z,7.25
2019-02-15T20:30:19.583Z,12.25
2019-02-15T20:32:48.346Z,9.65
2019-02-15T20:35:17.329Z,8.68
2019-02-15T20:37:46.208Z,6.58
2019-02-15T20:40:14.999Z,6.53
2019-02-15T20:42:44.041Z,8.55
2019-02-15T20:45:15.302Z,7.55
2019-02-15T20:47:44.286Z,8.40
2019-02-15T20:50:13.376Z,7.53
2019-02-15T20:52:42.269Z,7.17
2019-02-15T20:55:12.287Z,9.40
2019-02-15T20:57:41.096Z,10.82
2019-02-15T21:00:12.653Z,9.53
2019-02-15T21:02:41.413Z,10.53
2019-02-15T21:05:10.599Z,12.53
2019-02-15T21:07:39.318Z,7.28
2019-02-15T21:10:09.317Z,9.50
2019-02-15T21:12:39.636Z,8.65
2019-02-15T21:15:08.896Z,9.80
2019-02-15T21:17:37.604Z,8.43
2019-02-15T21:20:08.122Z,7.20
2019-02-15T21:22:37.173Z,7.25
2019-02-15T21:25:06.654Z,8.55
2019-02-15T21:27:35.379Z,7.60
2019-02-15T21:30:04.582Z,8.53
2019-02-15T21:32:33.304Z,10.88
2019-02-15T21:35:02.075Z,8.38
2019-02-15T21:37:30.877Z,6.40
2019-02-15T21:39:59.659Z,8.75
2019-02-15T21:42:28.534Z,11.68
2019-02-15T21:44:57.309Z,13.45
2019-02-15T21:47:26.288Z,9.78
2019-02-15T21:49:55.073Z,9.05
2019-02-15T21:52:23.833Z,12.85
2019-02-15T21:54:52.543Z,5.72
2019-02-15T21:57:21.410Z,8.35
2019-02-15T21:59:50.233Z,5.45
2019-02-15T22:02:19.048Z,10.00
2019-02-15T22:04:48.223Z,8.00
2019-02-15T22:07:17.153Z,7.87
2019-02-15T22:09:47.785Z,7.67
2019-02-15T22:12:16.878Z,7.35
2019-02-15T22:14:45.644Z,10.08
2019-02-15T22:17:14.642Z,6.50
2019-02-15T22:19:43.379Z,5.60
2019-02-15T22:22:12.139Z,9.35
2019-02-15T22:24:40.932Z,7.28
2019-02-15T22:27:09.660Z,7.45
2019-02-15T22:29:38.520Z,6.42
2019-02-15T22:32:07.355Z,6.78
2019-02-15T22:34:36.225Z,9.00
2019-02-15T22:37:04.945Z,7.67
2019-02-15T22:39:33.615Z,8.18
2019-02-15T22:42:02.476Z,8.03
2019-02-15T22:44:31.301Z,8.78
2019-02-15T22:47:00.057Z,7.37
2019-02-15T22:49:28.756Z,8.00
2019-02-15T22:51:57.585Z,10.68
2019-02-15T22:54:26.406Z,10.48
2019-02-15T22:56:55.234Z,7.67
2019-02-15T22:59:24.338Z,11.45
2019-02-15T23:01:53.358Z,9.58
2019-02-15T23:04:22.222Z,13.22
2019-02-15T23:06:50.933Z,8.48
2019-02-15T23:09:26.401Z,8.90
2019-02-15T23:11:55.344Z,14.73
2019-02-15T23:14:24.123Z,6.67
2019-02-15T23:16:53.119Z,7.70
2019-02-15T23:19:21.862Z,9.80
2019-02-15T23:21:51.027Z,7.58
2019-02-15T23:24:19.862Z,8.80
2019-02-15T23:26:48.748Z,7.53
2019-02-15T23:29:17.560Z,10.20
2019-02-15T23:31:46.375Z,9.75
2019-02-15T23:34:15.068Z,8.53
2019-02-15T23:36:43.835Z,7.87
2019-02-15T23:39:12.641Z,10.28
2019-02-15T23:41:41.568Z,9.65
2019-02-15T23:44:10.282Z,9.20
2019-02-15T23:46:39.086Z,15.38
2019-02-15T23:49:07.826Z,9.55
2019-02-15T23:51:36.641Z,8.40
2019-02-15T23:54:05.367Z,9.30
2019-02-15T23:56:34.118Z,7.50
2019-02-15T23:59:02.831Z,11.45
